sensor_id;sensor_type;location;lat;lon;timestamp;temperature;humidity
50736;DHT22;36702;50.892;20.648;2022-07-10T00:07:04;24;73
50736;DHT22;36702;50.892;20.648;2022-07-10T00:14:21;24;73
50736;DHT22;36702;50.892;20.648;2022-07-10T00:21:05;24;73
50736;DHT22;36702;50.892;20.648;2022-07-10T00:28:05;24;73
50736;DHT22;36702;50.892;20.648;2022-07-10T00:35:19;27;73
50736;DHT22;36702;50.892;20.648;2022-07-10T00:42:28;27;73
50736;DHT22;36702;50.892;20.648;2022-07-10T00:49:04;27;73
50736;DHT22;36702;50.892;20.648;2022-07-10T00:56:28;27;73
50736;DHT22;36702;50.892;20.648;2022-07-10T01:00:14;27;73
50736;DHT22;36702;50.892;20.648;2022-07-10T01:07:19;26;74
50736;DHT22;36702;50.892;20.648;2022-07-10T01:14:19;26;74
50736;DHT22;36702;50.892;20.648;2022-07-10T01:21:37;26;74
50736;DHT22;36702;50.892;20.648;2022-07-10T01:28:21;26;74
50736;DHT22;36702;50.892;20.648;2022-07-10T01:35:23;25;75
50736;DHT22;36702;50.892;20.648;2022-07-10T01:42:08;25;75
50736;DHT22;36702;50.892;20.648;2022-07-10T01:49:22;25;75
50736;DHT22;36702;50.892;20.648;2022-07-10T01:56:14;25;75
50736;DHT22;36702;50.892;20.648;2022-07-10T02:00:05;25;75
50736;DHT22;36702;50.892;20.648;2022-07-10T02:07:06;26;83
50736;DHT22;36702;50.892;20.648;2022-07-10T02:14:04;26;83
50736;DHT22;36702;50.892;20.648;2022-07-10T02:21:04;26;83
50736;DHT22;36702;50.892;20.648;2022-07-10T02:28:03;26;83
50736;DHT22;36702;50.892;20.648;2022-07-10T02:35:07;25.37;84
50736;DHT22;36702;50.892;20.648;2022-07-10T02:42:04;25.37;84
50736;DHT22;36702;50.892;20.648;2022-07-10T02:49:09;25.37;84
50736;DHT22;36702;50.892;20.648;2022-07-10T02:56:16;25.37;84
50736;DHT22;36702;50.892;20.648;2022-07-10T03:00:05;25.37;84
50736;DHT22;36702;50.892;20.648;2022-07-10T03:07:07;25.19;85
50736;DHT22;36702;50.892;20.648;2022-07-10T03:14:02;25.19;85
50736;DHT22;36702;50.892;20.648;2022-07-10T03:21:02;25.19;85
50736;DHT22;36702;50.892;20.648;2022-07-10T03:28:15;25.19;85
50736;DHT22;36702;50.892;20.648;2022-07-10T03:35:18;24.63;82
50736;DHT22;36702;50.892;20.648;2022-07-10T03:42:20;24.63;82
50736;DHT22;36702;50.892;20.648;2022-07-10T03:49:20;24.63;82
50736;DHT22;36702;50.892;20.648;2022-07-10T04:00:13;24.63;82
50736;DHT22;36702;50.892;20.648;2022-07-10T04:07:07;23.89;85
50736;DHT22;36702;50.892;20.648;2022-07-10T04:14:02;23.89;85
50736;DHT22;36702;50.892;20.648;2022-07-10T04:21:17;23.89;85
50736;DHT22;36702;50.892;20.648;2022-07-10T04:28:05;23.89;85
50736;DHT22;36702;50.892;20.648;2022-07-10T04:35:22;25;87
50736;DHT22;36702;50.892;20.648;2022-07-10T04:42:03;25;87
50736;DHT22;36702;50.892;20.648;2022-07-10T04:49:18;25;87
50736;DHT22;36702;50.892;20.648;2022-07-10T04:56:08;25;87
50736;DHT22;36702;50.892;20.648;2022-07-10T05:00:05;25;87
50736;DHT22;36702;50.892;20.648;2022-07-10T05:07:05;24;89
50736;DHT22;36702;50.892;20.648;2022-07-10T05:14:03;24;89
50736;DHT22;36702;50.892;20.648;2022-07-10T05:21:03;24;89
50736;DHT22;36702;50.892;20.648;2022-07-10T05:28:03;24;89
50736;DHT22;36702;50.892;20.648;2022-07-10T05:35:09;24;91
50736;DHT22;36702;50.892;20.648;2022-07-10T05:42:02;24;91
50736;DHT22;36702;50.892;20.648;2022-07-10T05:49:19;24;91
50736;DHT22;36702;50.892;20.648;2022-07-10T05:56:18;24;91
50736;DHT22;36702;50.892;20.648;2022-07-10T06:00:11;24;91
50736;DHT22;36702;50.892;20.648;2022-07-10T06:07:04;23;92
50736;DHT22;36702;50.892;20.648;2022-07-10T06:14:16;23;92
50736;DHT22;36702;50.892;20.648;2022-07-10T06:21:08;23;92
50736;DHT22;36702;50.892;20.648;2022-07-10T06:28:05;23;92
50736;DHT22;36702;50.892;20.648;2022-07-10T06:35:20;23;93
50736;DHT22;36702;50.892;20.648;2022-07-10T06:42:18;23;93
50736;DHT22;36702;50.892;20.648;2022-07-10T06:49:05;23;93
50736;DHT22;36702;50.892;20.648;2022-07-10T06:56:03;23;93
50736;DHT22;36702;50.892;20.648;2022-07-10T07:00:04;23;93
50736;DHT22;36702;50.892;20.648;2022-07-10T07:07:12;23;93
50736;DHT22;36702;50.892;20.648;2022-07-10T07:14:17;23;93
50736;DHT22;36702;50.892;20.648;2022-07-10T07:28:03;23;93
50736;DHT22;36702;50.892;20.648;2022-07-10T07:35:14;22;93
50736;DHT22;36702;50.892;20.648;2022-07-10T07:42:17;22;93
50736;DHT22;36702;50.892;20.648;2022-07-10T07:49:20;22;93
50736;DHT22;36702;50.892;20.648;2022-07-10T07:56:14;22;93
50736;DHT22;36702;50.892;20.648;2022-07-10T08:00:18;22;93
50736;DHT22;36702;50.892;20.648;2022-07-10T08:14:16;22;93
50736;DHT22;36702;50.892;20.648;2022-07-10T08:21:06;22;93
50736;DHT22;36702;50.892;20.648;2022-07-10T08:28:19;22;93
50736;DHT22;36702;50.892;20.648;2022-07-10T08:42:26;22;94
50736;DHT22;36702;50.892;20.648;2022-07-10T08:49:47;22;94
50736;DHT22;36702;50.892;20.648;2022-07-10T08:56:17;22;94
50736;DHT22;36702;50.892;20.648;2022-07-10T09:00:02;22;94
50736;DHT22;36702;50.892;20.648;2022-07-10T09:14:22;22;94
50736;DHT22;36702;50.892;20.648;2022-07-10T09:21:25;22;94
50736;DHT22;36702;50.892;20.648;2022-07-10T09:28:22;22;94
50736;DHT22;36702;50.892;20.648;2022-07-10T09:42:43;22;96
50736;DHT22;36702;50.892;20.648;2022-07-10T09:49:28;22;96
50736;DHT22;36702;50.892;20.648;2022-07-10T09:56:20;22;96
50736;DHT22;36702;50.892;20.648;2022-07-10T10:00:02;22;96
50736;DHT22;36702;50.892;20.648;2022-07-10T10:14:31;22;96
50736;DHT22;36702;50.892;20.648;2022-07-10T10:21:03;22;96
50736;DHT22;36702;50.892;20.648;2022-07-10T10:28:34;22;96
50736;DHT22;36702;50.892;20.648;2022-07-10T10:35:02;22;96
50736;DHT22;36702;50.892;20.648;2022-07-10T10:42:44;22;96
50736;DHT22;36702;50.892;20.648;2022-07-10T10:49:23;22;96
50736;DHT22;36702;50.892;20.648;2022-07-10T16:49:20;24;83
50736;DHT22;36702;50.892;20.648;2022-07-10T16:56:22;24;83
50736;DHT22;36702;50.892;20.648;2022-07-10T17:00:21;24;83
50736;DHT22;36702;50.892;20.648;2022-07-10T17:07:10;24;83
50736;DHT22;36702;50.892;20.648;2022-07-10T17:21:19;25;81
50736;DHT22;36702;50.892;20.648;2022-07-10T17:28:20;25;81
50736;DHT22;36702;50.892;20.648;2022-07-10T17:35:05;25;81
50736;DHT22;36702;50.892;20.648;2022-07-10T17:49:19;24;87
50736;DHT22;36702;50.892;20.648;2022-07-10T17:56:06;24;87
50736;DHT22;36702;50.892;20.648;2022-07-10T18:00:16;24;87
50736;DHT22;36702;50.892;20.648;2022-07-10T18:07:07;24;87
50736;DHT22;36702;50.892;20.648;2022-07-10T18:21:22;23;89
50736;DHT22;36702;50.892;20.648;2022-07-10T18:28:14;23;89
50736;DHT22;36702;50.892;20.648;2022-07-10T18:35:16;23;89
50736;DHT22;36702;50.892;20.648;2022-07-10T18:49:04;23;88
50736;DHT22;36702;50.892;20.648;2022-07-10T18:56:19;23;88
50736;DHT22;36702;50.892;20.648;2022-07-10T19:00:20;23;88
50736;DHT22;36702;50.892;20.648;2022-07-10T19:07:06;23;88
50736;DHT22;36702;50.892;20.648;2022-07-10T19:21:18;22;88
50736;DHT22;36702;50.892;20.648;2022-07-10T19:28:17;22;88
50736;DHT22;36702;50.892;20.648;2022-07-10T19:35:18;22;88
50736;DHT22;36702;50.892;20.648;2022-07-10T19:49:20;23;86
50736;DHT22;36702;50.892;20.648;2022-07-10T19:56:16;23;86
50736;DHT22;36702;50.892;20.648;2022-07-10T20:00:08;23;86
50736;DHT22;36702;50.892;20.648;2022-07-10T20:07:18;23;86
50736;DHT22;36702;50.892;20.648;2022-07-10T20:21:07;23;85
50736;DHT22;36702;50.892;20.648;2022-07-10T20:28:14;23;85
50736;DHT22;36702;50.892;20.648;2022-07-10T20:35:16;23;85
50736;DHT22;36702;50.892;20.648;2022-07-10T20:49:19;23;81
50736;DHT22;36702;50.892;20.648;2022-07-10T20:56:06;23;81
50736;DHT22;36702;50.892;20.648;2022-07-10T21:00:18;23;81
50736;DHT22;36702;50.892;20.648;2022-07-10T21:07:13;23;81
50736;DHT22;36702;50.892;20.648;2022-07-10T21:21:02;22;80
50736;DHT22;36702;50.892;20.648;2022-07-10T21:28:06;22;80
50736;DHT22;36702;50.892;20.648;2022-07-10T21:35:08;22;80
50736;DHT22;36702;50.892;20.648;2022-07-10T21:49:03;22;83
50736;DHT22;36702;50.892;20.648;2022-07-10T21:56:15;22;83
50736;DHT22;36702;50.892;20.648;2022-07-10T22:00:01;22;83
50736;DHT22;36702;50.892;20.648;2022-07-10T22:07:04;22;83
50736;DHT22;36702;50.892;20.648;2022-07-10T22:14:19;22;82
50736;DHT22;36702;50.892;20.648;2022-07-10T22:21:03;22;82
50736;DHT22;36702;50.892;20.648;2022-07-10T22:28:17;22;82
50736;DHT22;36702;50.892;20.648;2022-07-10T22:35:20;22;84
50736;DHT22;36702;50.892;20.648;2022-07-10T22:42:02;22;84
50736;DHT22;36702;50.892;20.648;2022-07-10T22:49:19;22;84
50736;DHT22;36702;50.892;20.648;2022-07-10T22:56:07;22;84
50736;DHT22;36702;50.892;20.648;2022-07-10T23:00:04;22;84
50736;DHT22;36702;50.892;20.648;2022-07-10T23:07:15;22;85
50736;DHT22;36702;50.892;20.648;2022-07-10T23:14:03;22;85
50736;DHT22;36702;50.892;20.648;2022-07-10T23:21:18;22;85
50736;DHT22;36702;50.892;20.648;2022-07-10T23:28:16;22;85
50736;DHT22;36702;50.892;20.648;2022-07-10T23:35:15;21;86
50736;DHT22;36702;50.892;20.648;2022-07-10T23:42:19;21;86
50736;DHT22;36702;50.892;20.648;2022-07-10T23:49:02;21;86
50736;DHT22;36702;50.892;20.648;2022-07-10T23:56:15;21;86
